Kezdőlap
METAR-TAF:

METAR-TAF

Repülőterek :

Gran Canaria, Spanyolország

Gran Canaria repülőtér

földrajzi szélesség: 27-56N, földrajzi hosszúság: 015-23W, magasság: 23 m

Jelenlegi meteorológiai megfigyelések

A jelentés 12 perccel ezelõtt készült, 10:00 UTC
Északi szél 10 kt
Hőmérséklet 19°C
Páratartalom 64%
Légköri nyomás 1027 hPa
Látótávolság 10 km, vagy több
felhőtlen 1500 m magasságban, és nincs gomolyfelhõ

METAR: GCLP 221000Z 01010KT CAVOK 19/12 Q1027 NOSIG

Idő: 10:12 (10:12 UTC)

Előrejelzés

A jelentés 2 órával és 12 perccel ezelõtt készült, 08:00 UTC
Az előrejelzés 22-én 09 óra UTC és 23-én 09 óra UTC között érvényes
Észak-északkeleti szél 13 kt
Látótávolság 10 km, vagy több
Kevés felhő 2000 lábon

TAF: GCLP 220800Z 2209/2309 02013KT 9999 FEW020 TX23/2214Z TN15/2306Z

Meteorológiai megfigyelések és előrejelzések több, mint 4000 repülőtéren (METAR és TAF jelentéseket).

A térképen piros és sárga pontok jelzik az elérhető meteorológiai állomásokat.

Mozgassa az egeret a pont fölött, hogy megjelenjen az állomás neve.

Azután kattintson az időjárási megfigyelések és előrejelzések megtekintéséhez.

A térkép megváltoztatása: kattintson a fekete keresztel jelölt zöld gombra ráközelítéshez, a vonallal jelölt zöld gombra távolításhoz, vagy a zöld nyilakra a szomszédos térképek eléréséhez.


METAR-TAF: